Time;durP1;ratioP1;P1;durP2;ratioP2;P2;SDS_P1;SDS_P2;PMS_P1;PMS_P2;Temp;Humidity;BMP_temperature;BMP_pressure;BME280_temperature;BME280_humidity;BME280_pressure;Samples;Min_cycle;Max_cycle;Signal;HPM_P1;HPM_P2
2022/04/20 00:01:57;;;;;;;17.10;10.97;;;23.20;51.80;;;;;;5033417;28;20199;-82
2022/04/20 00:04:23;;;;;;;17.13;10.27;;;23.20;51.80;;;;;;5015671;28;20219;-82
2022/04/20 00:06:49;;;;;;;15.30;10.87;;;23.10;51.80;;;;;;5031958;28;20165;-82
2022/04/20 00:09:14;;;;;;;15.20;11.03;;;23.10;51.80;;;;;;5014981;28;20168;-82
2022/04/20 00:11:40;;;;;;;15.50;10.50;;;23.20;51.80;;;;;;5032488;28;20235;-82
2022/04/20 00:14:06;;;;;;;14.37;10.43;;;23.20;51.80;;;;;;5032353;28;20172;-82
2022/04/20 00:16:32;;;;;;;17.50;10.97;;;23.10;51.80;;;;;;5015229;28;20185;-82
2022/04/20 00:18:57;;;;;;;14.07;9.20;;;23.20;51.80;;;;;;5032564;28;20168;-82
2022/04/20 00:21:23;;;;;;;15.10;10.00;;;23.20;51.90;;;;;;5032124;28;20169;-82
2022/04/20 00:23:49;;;;;;;12.47;10.00;;;23.10;51.80;;;;;;5032721;28;20196;-82
2022/04/20 00:26:15;;;;;;;11.90;10.43;;;23.10;51.80;;;;;;5033563;28;20277;-82
2022/04/20 00:28:41;;;;;;;13.63;10.63;;;23.20;51.90;;;;;;5036836;28;20427;-82
2022/04/20 00:31:06;;;;;;;13.40;9.77;;;23.10;51.80;;;;;;5019529;28;20637;-82
2022/04/20 00:33:32;;;;;;;13.23;10.23;;;23.10;51.80;;;;;;5036402;28;20172;-82
2022/04/20 00:35:58;;;;;;;13.10;9.80;;;23.20;51.90;;;;;;5019147;28;20184;-82
2022/04/20 00:38:23;;;;;;;16.07;10.10;;;23.10;51.80;;;;;;5018976;28;20211;-82
2022/04/20 00:40:50;;;;;;;12.77;9.00;;;23.10;51.80;;;;;;5035834;28;20179;-82
2022/04/20 00:43:16;;;;;;;13.40;9.80;;;23.10;51.80;;;;;;5036902;28;20177;-82
2022/04/20 00:45:42;;;;;;;14.40;10.07;;;23.10;51.80;;;;;;5018702;28;20463;-82
2022/04/20 00:48:10;;;;;;;14.23;9.47;;;23.10;51.80;;;;;;5019038;28;20403;-82
2022/04/20 00:50:40;;;;;;;13.13;9.67;;;23.10;51.80;;;;;;5035614;28;20416;-82
2022/04/20 00:53:06;;;;;;;12.03;9.23;;;23.10;51.80;;;;;;5035853;28;20411;-82
2022/04/20 00:55:31;;;;;;;13.20;10.13;;;23.10;51.80;;;;;;5018955;28;20419;-83
2022/04/20 00:57:57;;;;;;;11.83;9.00;;;23.20;51.90;;;;;;5035811;28;20208;-82
2022/04/20 01:00:25;;;;;;;11.20;9.47;;;23.10;51.80;;;;;;5036070;28;20176;-82
2022/04/20 01:02:50;;;;;;;11.40;8.90;;;23.10;51.80;;;;;;5036012;28;20171;-82
2022/04/20 01:05:17;;;;;;;13.97;8.97;;;23.10;51.80;;;;;;5036266;28;20479;-82
2022/04/20 01:07:42;;;;;;;12.13;9.40;;;23.10;51.80;;;;;;5036266;28;20175;-83
2022/04/20 01:10:08;;;;;;;12.50;9.07;;;23.10;51.80;;;;;;5018166;28;20788;-82
2022/04/20 01:12:34;;;;;;;10.40;8.80;;;23.10;51.80;;;;;;5017780;28;20188;-82
2022/04/20 01:15:00;;;;;;;11.23;9.00;;;23.10;51.80;;;;;;5018467;28;20177;-82
2022/04/20 01:17:26;;;;;;;14.03;9.77;;;23.10;51.80;;;;;;5036002;28;20415;-82
2022/04/20 01:19:51;;;;;;;10.30;8.67;;;23.10;51.80;;;;;;5035583;28;20176;-82
2022/04/20 01:22:17;;;;;;;13.20;9.70;;;23.10;51.80;;;;;;5018648;28;20200;-82
2022/04/20 01:24:43;;;;;;;13.83;8.97;;;23.10;51.80;;;;;;5035195;28;20253;-82
2022/04/20 01:27:10;;;;;;;12.50;8.50;;;23.10;51.80;;;;;;5035741;28;20191;-83
2022/04/20 01:29:37;;;;;;;15.07;8.90;;;23.10;51.80;;;;;;5035469;28;20415;-82
2022/04/20 01:32:02;;;;;;;10.60;8.80;;;23.10;51.80;;;;;;5017998;28;20450;-82
2022/04/20 01:34:28;;;;;;;12.63;9.13;;;23.10;51.80;;;;;;5018356;28;20399;-82
2022/04/20 01:36:54;;;;;;;12.80;8.80;;;23.10;51.80;;;;;;5035621;28;20184;-82
2022/04/20 01:39:20;;;;;;;12.77;9.03;;;23.10;51.80;;;;;;5017378;28;20270;-82
2022/04/20 01:41:45;;;;;;;12.30;8.47;;;23.10;51.80;;;;;;5035540;28;20564;-82
2022/04/20 01:44:11;;;;;;;12.50;8.13;;;23.10;51.80;;;;;;5034922;28;20172;-82
2022/04/20 01:46:37;;;;;;;10.57;7.70;;;23.10;51.80;;;;;;5034840;28;20176;-82
2022/04/20 01:49:03;;;;;;;12.10;9.23;;;23.10;51.80;;;;;;5035187;28;20594;-82
2022/04/20 01:51:50;;;;;;;11.80;8.90;;;23.10;51.80;;;;;;5016662;28;20184;-83
2022/04/20 01:54:18;;;;;;;12.30;9.27;;;23.10;51.80;;;;;;5012103;28;20431;-82
2022/04/20 01:56:45;;;;;;;11.40;8.77;;;23.10;51.80;;;;;;5013341;28;20441;-82
2022/04/20 01:59:11;;;;;;;11.07;8.30;;;23.10;51.80;;;;;;5030808;28;20426;-83
2022/04/20 02:04:21;;;;;;;11.20;7.97;;;23.10;51.80;;;;;;5031225;28;20239;-83
2022/04/20 02:06:46;;;;;;;10.10;7.97;;;23.10;51.80;;;;;;5030440;28;20411;-83
2022/04/20 02:09:12;;;;;;;12.57;9.40;;;23.10;51.80;;;;;;5028601;28;20183;-83
2022/04/20 02:11:38;;;;;;;11.23;8.07;;;23.10;51.90;;;;;;5030429;28;20196;-82
2022/04/20 02:14:04;;;;;;;9.27;7.60;;;23.10;51.90;;;;;;5028451;28;20181;-83
2022/04/20 02:16:30;;;;;;;11.27;8.17;;;23.10;51.90;;;;;;5014555;28;20495;-83
2022/04/20 02:18:56;;;;;;;11.60;7.77;;;23.10;51.90;;;;;;5011600;28;20411;-82
2022/04/20 02:21:25;;;;;;;10.00;7.10;;;23.10;51.80;;;;;;5016516;28;20206;-83
2022/04/20 02:23:50;;;;;;;10.27;7.73;;;23.10;51.90;;;;;;5014147;28;20171;-82
2022/04/20 02:26:16;;;;;;;13.17;8.23;;;23.10;51.80;;;;;;4997648;28;20475;-83
2022/04/20 02:28:45;;;;;;;11.13;8.50;;;23.10;51.90;;;;;;4997817;28;20196;-83
2022/04/20 02:31:11;;;;;;;8.90;7.50;;;23.10;51.90;;;;;;5014463;28;20169;-83
2022/04/20 02:33:39;;;;;;;14.27;8.77;;;23.10;51.80;;;;;;5014759;28;20411;-82
2022/04/20 02:36:10;;;;;;;11.50;7.43;;;23.10;51.80;;;;;;5014584;28;20466;-82
2022/04/20 02:38:36;;;;;;;10.67;8.33;;;23.10;51.80;;;;;;5014098;28;20416;-82
2022/04/20 02:41:04;;;;;;;11.07;7.83;;;23.10;51.80;;;;;;5014215;28;20416;-83
2022/04/20 02:43:30;;;;;;;12.70;8.40;;;23.10;51.90;;;;;;4997738;28;20492;-83
2022/04/20 02:45:56;;;;;;;9.77;7.27;;;23.10;51.80;;;;;;4996964;28;20467;-82
2022/04/20 02:48:23;;;;;;;11.77;7.57;;;23.10;51.80;;;;;;5012091;28;20173;-82
2022/04/20 02:50:49;;;;;;;11.60;8.07;;;23.10;51.80;;;;;;5014317;28;20419;-82
2022/04/20 02:53:17;;;;;;;9.70;7.20;;;23.10;51.80;;;;;;5013178;28;20416;-82
2022/04/20 02:55:43;;;;;;;12.73;8.67;;;23.10;51.80;;;;;;5013177;28;20158;-82
2022/04/20 02:58:09;;;;;;;9.93;6.83;;;23.10;51.90;;;;;;4996947;28;20435;-82
2022/04/20 03:00:36;;;;;;;9.80;7.60;;;23.10;51.90;;;;;;4995521;28;20176;-82
2022/04/20 03:03:02;;;;;;;10.07;7.87;;;23.10;51.80;;;;;;5012027;28;20420;-82
2022/04/20 03:05:28;;;;;;;10.73;7.30;;;23.10;51.90;;;;;;5013087;28;20471;-82
2022/04/20 03:07:53;;;;;;;7.80;6.53;;;23.10;51.90;;;;;;4996790;28;20244;-82
2022/04/20 03:10:19;;;;;;;8.67;7.20;;;23.10;51.80;;;;;;5013177;28;20447;-82
2022/04/20 03:12:45;;;;;;;11.90;7.43;;;23.10;51.90;;;;;;5012864;28;20200;-82
2022/04/20 03:15:11;;;;;;;11.10;7.83;;;23.10;51.80;;;;;;5030814;28;20246;-82
2022/04/20 03:17:37;;;;;;;9.10;7.90;;;23.10;51.90;;;;;;5016017;28;20219;-81
2022/04/20 03:20:03;;;;;;;7.53;6.83;;;23.10;51.90;;;;;;5016490;28;20248;-81
2022/04/20 03:22:29;;;;;;;9.10;6.63;;;23.10;51.90;;;;;;5032932;28;20180;-82
2022/04/20 03:24:56;;;;;;;10.30;6.90;;;23.10;51.90;;;;;;4999354;28;20463;-81
2022/04/20 03:27:22;;;;;;;8.57;6.97;;;23.10;51.90;;;;;;5016051;28;20235;-81
2022/04/20 03:29:48;;;;;;;9.67;7.07;;;23.10;51.90;;;;;;5015923;28;20419;-82
2022/04/20 03:32:16;;;;;;;8.97;6.33;;;23.10;51.90;;;;;;5032900;28;20630;-81
2022/04/20 03:34:42;;;;;;;9.70;7.13;;;23.10;51.90;;;;;;5032988;28;20423;-81
2022/04/20 03:37:12;;;;;;;10.60;7.93;;;23.10;51.90;;;;;;4999557;28;20499;-81
2022/04/20 03:39:39;;;;;;;9.27;6.83;;;23.10;51.90;;;;;;5033028;28;20423;-82
2022/04/20 03:42:05;;;;;;;13.20;7.30;;;23.10;51.90;;;;;;5015956;28;20419;-82
2022/04/20 03:44:32;;;;;;;9.77;6.90;;;23.10;51.90;;;;;;5016052;28;20474;-82
2022/04/20 03:46:59;;;;;;;9.23;6.40;;;23.10;51.90;;;;;;5033174;28;20423;-82
2022/04/20 03:49:26;;;;;;;9.30;6.83;;;23.00;51.80;;;;;;5016157;28;20397;-82
2022/04/20 03:51:52;;;;;;;9.13;7.17;;;23.10;51.90;;;;;;5015965;28;20175;-82
2022/04/20 03:54:18;;;;;;;10.53;7.20;;;23.00;51.80;;;;;;5014851;28;20415;-82
2022/04/20 03:57:03;;;;;;;10.00;6.70;;;23.00;51.80;;;;;;5013000;28;20176;-82
2022/04/20 03:59:32;;;;;;;12.97;7.13;;;23.00;51.80;;;;;;5013196;28;20189;-82
2022/04/20 04:01:58;;;;;;;7.57;6.13;;;23.00;51.80;;;;;;5014551;28;20479;-82
2022/04/20 04:04:24;;;;;;;9.63;7.50;;;23.00;51.90;;;;;;5017039;28;20479;-82
2022/04/20 04:06:52;;;;;;;10.10;6.30;;;23.00;52.40;;;;;;5016427;28;20459;-83
2022/04/20 04:09:18;;;;;;;9.27;6.63;;;23.00;51.80;;;;;;5015829;28;20413;-81
2022/04/20 04:11:44;;;;;;;8.27;6.43;;;23.00;51.80;;;;;;5018809;28;20443;-82
2022/04/20 04:14:10;;;;;;;10.23;6.90;;;23.00;51.90;;;;;;5016093;28;20416;-82
2022/04/20 04:16:39;;;;;;;10.23;7.33;;;23.00;51.80;;;;;;5027166;28;20419;-82
2022/04/20 04:19:06;;;;;;;8.10;5.93;;;23.00;51.90;;;;;;5013240;28;20192;-81
2022/04/20 04:21:35;;;;;;;7.93;6.50;;;23.00;51.90;;;;;;5011047;28;20432;-81
2022/04/20 04:24:01;;;;;;;9.80;6.50;;;23.00;51.90;;;;;;5017117;28;20411;-82
2022/04/20 04:26:28;;;;;;;9.87;6.70;;;23.00;51.90;;;;;;5007961;28;20442;-83
2022/04/20 04:28:54;;;;;;;8.53;6.30;;;23.00;51.90;;;;;;5036697;28;20429;-83
2022/04/20 04:31:20;;;;;;;7.90;5.77;;;23.00;51.90;;;;;;5018856;28;20425;-83
2022/04/20 04:33:47;;;;;;;10.27;6.80;;;23.00;51.90;;;;;;5036500;28;20168;-81
2022/04/20 04:36:13;;;;;;;10.20;7.27;;;23.00;51.90;;;;;;5003391;28;20423;-82
2022/04/20 04:38:38;;;;;;;10.53;7.17;;;23.00;51.90;;;;;;5019939;28;20450;-82
2022/04/20 04:41:05;;;;;;;9.13;7.00;;;23.00;51.90;;;;;;5036389;28;20184;-82
2022/04/20 04:43:33;;;;;;;10.80;7.27;;;23.00;51.90;;;;;;5019329;28;20680;-81
2022/04/20 04:48:48;;;;;;;6.10;5.37;;;23.00;51.90;;;;;;5016915;28;20411;-82
2022/04/20 04:51:15;;;;;;;10.00;6.33;;;23.00;51.90;;;;;;4998490;28;20404;-82
2022/04/20 04:53:41;;;;;;;7.70;6.30;;;23.00;51.90;;;;;;4999510;28;20423;-81
2022/04/20 04:56:10;;;;;;;8.53;6.77;;;23.00;51.90;;;;;;4999674;28;20430;-82
2022/04/20 04:58:36;;;;;;;8.33;6.50;;;23.00;51.90;;;;;;5015723;28;20430;-81
2022/04/20 05:01:02;;;;;;;7.17;6.03;;;23.10;52.00;;;;;;5015089;28;20428;-81
2022/04/20 05:03:28;;;;;;;10.30;6.20;;;23.10;52.00;;;;;;5017284;28;20435;-82
2022/04/20 05:05:54;;;;;;;8.43;6.30;;;23.10;52.00;;;;;;5018675;28;20463;-82
2022/04/20 05:08:20;;;;;;;7.87;5.20;;;23.10;52.00;;;;;;5036463;28;20168;-82
2022/04/20 05:10:45;;;;;;;8.67;6.50;;;23.10;51.90;;;;;;5034853;28;20189;-82
2022/04/20 05:13:11;;;;;;;8.50;6.57;;;23.10;51.90;;;;;;5034188;28;20673;-82
2022/04/20 05:15:37;;;;;;;6.93;5.40;;;23.10;51.90;;;;;;5017750;28;20200;-83
2022/04/20 05:21:25;;;;;;;8.80;6.10;;;23.10;51.90;;;;;;5034885;28;20287;-82
2022/04/20 05:23:50;;;;;;;9.90;6.30;;;23.10;52.00;;;;;;5017660;28;20419;-82
2022/04/20 05:26:17;;;;;;;7.30;5.87;;;23.10;52.00;;;;;;5032815;28;20231;-82
2022/04/20 05:28:43;;;;;;;10.03;5.97;;;23.10;52.00;;;;;;5034273;28;20160;-82
2022/04/20 05:31:10;;;;;;;6.73;5.70;;;23.10;52.00;;;;;;5014156;28;20447;-82
2022/04/20 05:33:36;;;;;;;8.20;5.67;;;23.10;51.90;;;;;;4997904;28;20484;-82
2022/04/20 05:36:02;;;;;;;6.33;5.10;;;23.10;51.90;;;;;;5017080;28;20184;-82
2022/04/20 05:43:57;;;;;;;7.77;5.83;;;23.20;52.00;;;;;;5016162;28;20465;-83
2022/04/20 05:46:23;;;;;;;7.37;5.33;;;23.10;51.90;;;;;;5008176;28;20865;-83
2022/04/20 05:48:48;;;;;;;7.00;5.20;;;23.20;52.00;;;;;;5031100;28;20173;-83
2022/04/20 05:51:14;;;;;;;6.90;5.63;;;23.20;52.00;;;;;;5030286;28;20200;-83
2022/04/20 05:53:40;;;;;;;10.53;7.03;;;23.20;51.90;;;;;;5023922;28;20177;-86
2022/04/20 05:56:06;;;;;;;10.17;6.13;;;23.20;51.90;;;;;;5011795;28;20176;-83
2022/04/20 05:58:32;;;;;;;6.10;5.03;;;23.20;51.90;;;;;;5013361;28;20177;-83
2022/04/20 06:00:57;;;;;;;6.73;5.20;;;23.20;51.90;;;;;;5011384;28;20437;-83
2022/04/20 06:03:23;;;;;;;6.13;4.87;;;23.20;51.90;;;;;;5012400;28;20412;-82
2022/04/20 06:05:49;;;;;;;9.43;6.23;;;23.10;51.80;;;;;;5005909;28;20287;-82
2022/04/20 06:08:14;;;;;;;10.10;6.20;;;23.20;51.90;;;;;;5029850;28;20181;-83
2022/04/20 06:10:44;;;;;;;7.33;5.67;;;23.20;51.90;;;;;;5030487;28;20547;-83
2022/04/20 06:13:10;;;;;;;5.60;5.10;;;23.20;51.90;;;;;;5013530;28;20180;-82
2022/04/20 06:15:36;;;;;;;7.27;5.00;;;23.20;51.90;;;;;;5017991;28;20421;-82
2022/04/20 06:18:02;;;;;;;5.77;4.50;;;23.20;51.90;;;;;;5029067;28;20272;-82
2022/04/20 06:20:27;;;;;;;6.00;4.73;;;23.20;51.80;;;;;;5031009;28;20441;-81
2022/04/20 06:22:53;;;;;;;6.83;5.20;;;23.20;51.80;;;;;;5012088;28;20280;-82
2022/04/20 06:25:19;;;;;;;5.27;4.67;;;23.20;51.90;;;;;;5018685;28;20230;-82
2022/04/20 06:27:44;;;;;;;7.30;4.50;;;23.20;51.80;;;;;;5016900;28;20184;-81
2022/04/20 06:30:10;;;;;;;6.73;4.20;;;23.20;51.90;;;;;;5012566;28;20173;-81
2022/04/20 06:32:36;;;;;;;5.53;4.30;;;23.20;51.80;;;;;;5031096;28;20200;-82
2022/04/20 06:35:03;;;;;;;5.53;4.60;;;23.20;51.90;;;;;;5010422;28;20457;-82
2022/04/20 06:37:29;;;;;;;7.43;5.07;;;23.20;51.80;;;;;;5032020;28;20411;-83
2022/04/20 06:39:56;;;;;;;6.90;4.40;;;23.20;51.90;;;;;;5030704;28;20462;-81
2022/04/20 06:42:22;;;;;;;6.43;4.50;;;23.20;51.90;;;;;;5030869;28;20181;-81
2022/04/20 06:44:48;;;;;;;5.83;4.27;;;23.20;51.90;;;;;;5004231;28;20451;-81
2022/04/20 06:47:14;;;;;;;6.40;4.93;;;23.20;51.90;;;;;;5029776;28;20417;-82
2022/04/20 06:49:41;;;;;;;6.07;4.63;;;23.20;51.90;;;;;;5030406;28;20422;-82
2022/04/20 07:00:21;;;;;;;8.30;4.57;;;23.10;51.80;;;;;;5025987;28;20425;-81
2022/04/20 07:02:47;;;;;;;6.17;3.97;;;23.10;51.80;;;;;;5010812;28;20427;-81
2022/04/20 07:05:13;;;;;;;5.57;4.10;;;23.10;51.80;;;;;;5009899;28;20211;-82
2022/04/20 07:07:39;;;;;;;4.83;3.77;;;23.10;51.80;;;;;;5011013;28;20207;-86
2022/04/20 07:10:05;;;;;;;5.50;4.30;;;23.10;51.80;;;;;;5026244;28;20183;-83
2022/04/20 07:12:31;;;;;;;5.17;3.40;;;23.10;51.80;;;;;;5027757;28;20203;-85
2022/04/20 07:14:58;;;;;;;4.87;3.83;;;23.10;51.80;;;;;;5009504;28;20445;-82
2022/04/20 07:17:24;;;;;;;4.90;4.23;;;23.10;51.80;;;;;;5025330;28;20423;-81
2022/04/20 07:19:50;;;;;;;4.73;3.53;;;23.10;51.80;;;;;;5010181;28;20181;-82
2022/04/20 07:22:15;;;;;;;5.30;4.20;;;23.10;51.90;;;;;;5017535;28;20239;-81
2022/04/20 07:24:41;;;;;;;7.10;4.50;;;23.20;52.00;;;;;;5011194;28;20266;-81
2022/04/20 07:27:07;;;;;;;5.57;4.10;;;23.20;52.00;;;;;;5010439;28;21577;-83
2022/04/20 07:29:33;;;;;;;5.47;4.10;;;23.20;51.90;;;;;;5011899;28;20244;-82
2022/04/20 07:31:58;;;;;;;8.03;4.00;;;23.20;51.90;;;;;;5028474;28;20191;-81
2022/04/20 07:34:24;;;;;;;9.70;4.00;;;23.20;51.90;;;;;;5012298;28;20173;-81
2022/04/20 07:36:50;;;;;;;5.37;3.80;;;23.20;51.90;;;;;;5029172;28;20215;-81
2022/04/20 07:39:16;;;;;;;5.97;3.60;;;23.20;51.90;;;;;;5012281;28;20184;-81
2022/04/20 07:41:42;;;;;;;4.80;3.70;;;23.30;52.00;;;;;;5012697;28;20226;-83
2022/04/20 07:44:08;;;;;;;4.20;3.67;;;23.30;52.00;;;;;;5012064;28;20185;-81
2022/04/20 07:46:34;;;;;;;6.47;4.30;;;23.30;51.90;;;;;;5029279;28;20404;-82
2022/04/20 07:50:18;;;;;;;5.03;4.07;;;23.30;51.90;;;;;;5011940;28;20434;-82
2022/04/20 07:51:45;;;;;;;5.10;3.43;;;23.30;52.00;;;;;;5029296;28;20168;-82
2022/04/20 07:54:11;;;;;;;4.03;3.23;;;23.30;51.90;;;;;;5012731;28;20438;-82
2022/04/20 07:56:36;;;;;;;5.30;3.77;;;23.30;52.00;;;;;;5030242;28;20172;-82
2022/04/20 07:59:02;;;;;;;3.53;2.70;;;23.30;51.90;;;;;;5012413;28;20176;-82
2022/04/20 08:01:29;;;;;;;4.20;3.80;;;23.30;51.90;;;;;;5030096;28;20228;-82
2022/04/20 08:03:55;;;;;;;4.50;3.53;;;23.40;52.00;;;;;;5029954;28;20275;-82
2022/04/20 08:06:20;;;;;;;4.67;3.10;;;23.40;52.00;;;;;;5029523;28;20447;-81
2022/04/20 08:08:46;;;;;;;6.20;3.30;;;23.40;52.00;;;;;;5013209;28;20196;-81
2022/04/20 08:11:12;;;;;;;4.17;2.80;;;23.40;52.00;;;;;;5012252;28;20196;-81
2022/04/20 08:16:22;;;;;;;4.37;3.37;;;23.40;52.00;;;;;;5029999;28;20171;-82
2022/04/20 08:18:47;;;;;;;4.73;3.30;;;23.40;52.00;;;;;;5012871;28;20481;-82
2022/04/20 08:21:13;;;;;;;5.83;3.63;;;23.40;52.00;;;;;;5029539;28;20172;-81
2022/04/20 08:23:39;;;;;;;5.60;3.63;;;23.40;52.00;;;;;;5012726;28;20204;-82
2022/04/20 08:26:05;;;;;;;5.10;3.40;;;23.40;52.00;;;;;;5012126;28;20200;-81
2022/04/20 08:28:31;;;;;;;5.37;3.33;;;23.50;52.00;;;;;;5028102;28;20176;-82
2022/04/20 08:30:56;;;;;;;4.17;3.40;;;23.50;52.00;;;;;;5028178;28;20168;-81
2022/04/20 08:33:24;;;;;;;5.07;3.50;;;23.40;52.00;;;;;;5012449;28;20392;-82
2022/04/20 08:35:49;;;;;;;6.40;3.90;;;23.50;52.10;;;;;;5011826;28;20211;-81
2022/04/20 08:38:15;;;;;;;4.43;3.30;;;23.50;52.00;;;;;;5012290;28;20917;-83
2022/04/20 08:40:42;;;;;;;5.40;3.30;;;23.50;52.00;;;;;;5013340;28;20251;-82
2022/04/20 08:43:11;;;;;;;3.80;3.27;;;23.50;52.00;;;;;;5012546;28;20192;-82
2022/04/20 08:45:39;;;;;;;3.80;3.27;;;23.50;52.10;;;;;;5029444;28;20475;-82
2022/04/20 08:48:06;;;;;;;3.07;2.73;;;23.50;52.00;;;;;;5015664;28;20423;-82
2022/04/20 08:50:31;;;;;;;3.27;2.80;;;23.50;52.00;;;;;;5015330;28;20411;-82
2022/04/20 08:52:58;;;;;;;3.47;2.80;;;23.60;52.10;;;;;;5033585;28;20418;-82
2022/04/20 08:55:24;;;;;;;5.47;3.43;;;23.50;52.00;;;;;;5015949;28;20181;-82
2022/04/20 08:57:54;;;;;;;3.53;3.03;;;23.60;52.10;;;;;;5033546;28;20491;-82
2022/04/20 09:00:23;;;;;;;4.70;3.10;;;23.60;52.10;;;;;;5016469;28;20404;-82
2022/04/20 09:03:00;;;;;;;3.00;2.57;;;23.50;52.00;;;;;;5013448;28;20416;-83
2022/04/20 09:05:28;;;;;;;3.17;2.50;;;23.60;52.10;;;;;;5012396;28;20529;-83
2022/04/20 09:07:54;;;;;;;6.17;3.50;;;23.60;52.00;;;;;;5014015;28;20416;-83
2022/04/20 09:10:20;;;;;;;5.77;3.53;;;23.60;52.00;;;;;;5012313;28;20420;-83
2022/04/20 09:12:46;;;;;;;4.00;3.13;;;23.60;52.00;;;;;;5012489;28;20443;-82
2022/04/20 09:15:30;;;;;;;5.70;2.63;;;23.60;52.00;;;;;;5021044;28;20176;-83
2022/04/20 09:17:57;;;;;;;3.60;2.80;;;23.60;52.00;;;;;;5016277;28;20407;-82
2022/04/20 09:20:24;;;;;;;5.40;2.93;;;23.60;52.00;;;;;;5017934;28;20419;-82
2022/04/20 09:23:12;;;;;;;3.17;2.77;;;23.60;52.00;;;;;;5018590;28;20420;-80
2022/04/20 09:25:49;;;;;;;4.70;2.80;;;23.60;52.00;;;;;;5019966;28;20454;-80
2022/04/20 09:28:16;;;;;;;4.10;3.07;;;23.60;52.00;;;;;;5016900;28;20424;-80
2022/04/20 09:30:48;;;;;;;4.10;3.10;;;23.60;52.00;;;;;;5000937;28;20424;-80
2022/04/20 09:33:15;;;;;;;3.97;2.87;;;23.60;52.10;;;;;;5017313;28;20408;-80
2022/04/20 09:35:43;;;;;;;4.70;3.10;;;23.60;52.10;;;;;;5017287;28;20423;-80
2022/04/20 09:38:11;;;;;;;3.80;2.70;;;23.60;52.10;;;;;;5016685;28;20428;-81
2022/04/20 09:40:39;;;;;;;3.50;2.93;;;23.60;52.10;;;;;;5017154;28;20481;-81
2022/04/20 09:43:13;;;;;;;4.20;3.20;;;23.60;52.10;;;;;;5021637;28;20399;-81
2022/04/20 09:45:41;;;;;;;4.13;2.97;;;23.60;52.10;;;;;;5019054;28;20463;-80
2022/04/20 09:51:20;;;;;;;3.17;2.50;;;23.60;52.10;;;;;;5034996;28;20555;-81
2022/04/20 09:53:49;;;;;;;3.40;2.73;;;23.60;52.10;;;;;;5003008;28;20395;-81
2022/04/20 09:56:23;;;;;;;2.83;2.40;;;23.60;52.10;;;;;;5017661;28;20411;-81
2022/04/20 09:59:04;;;;;;;2.97;2.57;;;23.60;52.20;;;;;;5002838;28;20433;-81
2022/04/20 10:01:37;;;;;;;3.40;2.53;;;23.60;52.20;;;;;;4995661;28;20504;-81
2022/04/20 10:04:11;;;;;;;4.33;2.97;;;23.60;52.20;;;;;;4979958;28;20410;-81
2022/04/20 10:06:40;;;;;;;3.67;2.53;;;23.60;52.20;;;;;;4981000;28;20436;-81
2022/04/20 10:09:08;;;;;;;3.30;3.00;;;23.60;52.20;;;;;;4995587;28;20405;-81
2022/04/20 10:11:36;;;;;;;3.20;2.70;;;23.60;52.20;;;;;;4980577;28;21058;-81
2022/04/20 10:16:52;;;;;;;3.30;2.40;;;23.60;52.20;;;;;;4995559;28;20408;-81
2022/04/20 10:19:28;;;;;;;7.50;2.70;;;23.60;52.70;;;;;;4995828;28;20421;-81
2022/04/20 10:21:55;;;;;;;4.30;2.50;;;23.70;52.20;;;;;;4979092;28;20421;-81
2022/04/20 10:24:36;;;;;;;3.63;2.57;;;23.60;52.20;;;;;;4978833;28;20432;-80
2022/04/20 10:27:09;;;;;;;6.97;2.77;;;23.70;52.20;;;;;;4994631;28;20407;-81
2022/04/20 10:29:59;;;;;;;3.30;2.40;;;23.60;52.20;;;;;;4979499;28;20401;-81
2022/04/20 10:32:49;;;;;;;4.47;2.83;;;23.70;52.20;;;;;;5000770;28;20454;-81
2022/04/20 10:35:16;;;;;;;2.70;2.23;;;23.70;52.80;;;;;;5018643;28;20399;-81
2022/04/20 10:38:13;;;;;;;3.00;2.30;;;23.60;52.20;;;;;;5035042;28;20416;-81
2022/04/20 10:40:59;;;;;;;3.57;2.40;;;23.60;52.20;;;;;;5001477;28;20435;-81
2022/04/20 10:43:27;;;;;;;3.00;2.40;;;23.60;52.20;;;;;;5018244;28;20925;-81
2022/04/20 10:46:16;;;;;;;2.83;2.20;;;23.60;52.20;;;;;;5035537;28;20465;-81
2022/04/20 10:49:19;;;;;;;2.77;2.30;;;23.60;52.30;;;;;;5035170;28;20418;-81
2022/04/20 10:51:48;;;;;;;3.53;2.30;;;23.70;52.30;;;;;;4953422;29;20446;-81
2022/04/20 10:54:30;;;;;;;3.77;2.47;;;23.60;52.20;;;;;;4956574;29;20419;-81
2022/04/20 10:57:10;;;;;;;2.70;2.07;;;23.70;52.30;;;;;;4957836;29;20415;-81
2022/04/20 10:59:39;;;;;;;2.80;1.87;;;23.60;52.20;;;;;;4940990;29;20950;-82
2022/04/20 11:02:07;;;;;;;4.77;2.50;;;23.70;52.30;;;;;;4955617;29;20518;-82
2022/04/20 11:05:22;;;;;;;2.47;2.20;;;23.70;52.30;;;;;;4942272;29;20486;-82
2022/04/20 11:08:07;;;;;;;2.73;2.50;;;23.70;52.20;;;;;;4918234;29;20408;-82
2022/04/20 11:10:41;;;;;;;3.63;2.70;;;23.70;52.20;;;;;;4885587;29;20429;-82
2022/04/20 11:19:12;;;;;;;3.13;2.10;;;23.60;52.10;;;;;;4916131;29;20517;-83
2022/04/20 11:22:08;;;;;;;3.90;2.50;;;23.60;52.20;;;;;;4918320;29;20397;-82
2022/04/20 11:24:34;;;;;;;4.30;2.73;;;23.60;52.20;;;;;;4901959;29;20437;-83
2022/04/20 11:27:03;;;;;;;4.10;2.73;;;23.60;52.20;;;;;;4886854;29;20457;-83
2022/04/20 11:29:34;;;;;;;4.87;2.97;;;23.60;52.20;;;;;;4957847;29;20454;-83
2022/04/20 11:32:21;;;;;;;4.90;2.97;;;23.60;52.20;;;;;;4973992;28;20426;-83
2022/04/20 11:34:49;;;;;;;7.43;3.77;;;23.60;52.20;;;;;;4934309;29;20416;-83
2022/04/20 11:37:37;;;;;;;7.87;4.67;;;23.60;52.20;;;;;;4929146;29;20459;-83
2022/04/20 11:40:11;;;;;;;7.60;5.00;;;23.60;52.20;;;;;;4932893;29;20428;-83
2022/04/20 11:42:37;;;;;;;9.60;5.30;;;23.70;52.30;;;;;;4920600;29;20424;-83
2022/04/20 11:45:03;;;;;;;7.17;4.70;;;23.70;52.30;;;;;;4945543;29;20537;-83
2022/04/20 11:47:31;;;;;;;7.77;5.13;;;23.60;52.20;;;;;;4969065;29;20195;-83
2022/04/20 11:49:58;;;;;;;8.27;5.00;;;23.70;52.30;;;;;;4969369;28;20429;-83
2022/04/20 11:52:31;;;;;;;9.60;5.27;;;23.60;52.20;;;;;;4966335;29;20454;-83
2022/04/20 11:55:08;;;;;;;8.27;5.30;;;23.70;52.20;;;;;;4970977;29;20433;-83
2022/04/20 11:57:34;;;;;;;10.87;5.63;;;23.60;52.20;;;;;;4966763;29;20471;-83
2022/04/20 12:00:00;;;;;;;9.90;5.50;;;23.70;52.30;;;;;;4963577;29;20434;-83
2022/04/20 12:02:27;;;;;;;11.50;6.07;;;23.60;52.20;;;;;;4975997;29;20342;-83
2022/04/20 12:05:07;;;;;;;12.60;6.37;;;23.60;52.20;;;;;;4974948;29;20789;-83
2022/04/20 12:07:34;;;;;;;14.60;7.63;;;23.60;52.20;;;;;;4955696;29;20414;-83
2022/04/20 12:10:03;;;;;;;9.70;5.97;;;23.60;52.20;;;;;;4970983;28;20430;-81
2022/04/20 12:12:34;;;;;;;10.90;6.60;;;23.60;52.20;;;;;;5010037;28;20443;-82
2022/04/20 12:15:09;;;;;;;8.03;5.67;;;23.60;52.20;;;;;;4980424;28;20426;-82
2022/04/20 12:17:36;;;;;;;8.60;5.83;;;23.60;52.20;;;;;;5006203;28;20952;-81
2022/04/20 12:20:05;;;;;;;14.57;6.70;;;23.60;52.20;;;;;;4987157;28;20408;-81
2022/04/20 12:22:40;;;;;;;9.83;5.87;;;23.60;52.20;;;;;;5017719;28;20422;-82
2022/04/20 12:25:11;;;;;;;11.23;5.70;;;23.60;52.20;;;;;;5011121;28;20462;-82
2022/04/20 12:27:57;;;;;;;13.00;6.53;;;23.60;52.20;;;;;;5011273;28;20435;-81
2022/04/20 12:30:46;;;;;;;12.50;6.03;;;23.60;52.10;;;;;;5018457;28;20427;-81
2022/04/20 12:33:24;;;;;;;8.30;5.30;;;23.60;52.10;;;;;;5033020;28;20450;-81
2022/04/20 12:36:10;;;;;;;8.00;5.53;;;23.60;52.10;;;;;;5036329;28;20426;-82
2022/04/20 12:38:50;;;;;;;10.23;5.40;;;23.60;52.20;;;;;;5029972;28;20438;-82
2022/04/20 12:41:35;;;;;;;11.87;5.80;;;23.60;52.20;;;;;;5010246;28;20463;-82
2022/04/20 12:44:21;;;;;;;9.50;5.53;;;23.60;52.20;;;;;;5033511;28;20415;-82
2022/04/20 12:46:47;;;;;;;12.10;5.73;;;23.50;52.10;;;;;;5028461;28;20423;-83
2022/04/20 12:50:00;;;;;;;7.70;5.17;;;23.50;52.10;;;;;;5008716;28;20424;-83
2022/04/20 12:52:29;;;;;;;7.30;5.03;;;23.50;52.10;;;;;;5019196;28;20431;-83
2022/04/20 12:55:07;;;;;;;8.40;5.67;;;23.50;52.10;;;;;;5011263;28;20412;-82
2022/04/20 13:03:16;;;;;;;11.00;5.47;;;23.50;52.00;;;;;;5019479;28;20446;-82
2022/04/20 13:05:44;;;;;;;6.80;4.50;;;23.50;52.00;;;;;;5014834;28;20530;-82
2022/04/20 13:08:13;;;;;;;7.17;4.67;;;23.50;51.90;;;;;;5005378;28;20413;-83
2022/04/20 13:11:12;;;;;;;9.53;5.27;;;23.50;51.90;;;;;;5021862;28;20470;-83
2022/04/20 13:13:39;;;;;;;9.37;4.53;;;23.50;51.90;;;;;;5000729;28;20460;-82
2022/04/20 13:16:09;;;;;;;7.60;4.83;;;23.50;51.90;;;;;;5011449;28;20412;-82
2022/04/20 13:18:46;;;;;;;8.33;4.70;;;23.50;51.90;;;;;;5025169;28;20483;-82
2022/04/20 13:21:13;;;;;;;8.93;4.27;;;23.50;51.80;;;;;;5013905;28;20941;-82
2022/04/20 13:23:40;;;;;;;9.17;4.80;;;23.50;51.80;;;;;;5020365;28;20446;-81
2022/04/20 13:28:56;;;;;;;9.73;4.60;;;23.50;51.80;;;;;;5014293;28;20456;-83
2022/04/20 13:31:24;;;;;;;9.37;4.63;;;23.50;51.80;;;;;;5007921;28;20416;-82
2022/04/20 13:37:13;;;;;;;7.37;3.80;;;23.50;51.80;;;;;;5037153;28;20387;-81
2022/04/20 13:39:45;;;;;;;8.33;4.70;;;23.50;51.80;;;;;;5020494;28;20403;-81
2022/04/20 13:42:12;;;;;;;7.00;4.43;;;23.50;51.80;;;;;;5004499;28;20431;-82